Time;durP1;ratioP1;P1;durP2;ratioP2;P2;SDS_P1;SDS_P2;PMS_P1;PMS_P2;Temp;Humidity;BMP_temperature;BMP_pressure;BME280_temperature;BME280_humidity;BME280_pressure;Samples;Min_cycle;Max_cycle;Signal;HPM_P1;HPM_P2
2023/10/30 00:03:00;;;;;;;12.85;1.17;;;9.90;99.90;;;;;;6076689;23;20400;-95
2023/10/30 00:06:19;;;;;;;9.73;0.90;;;10.00;99.90;;;;;;6149911;23;20429;-95
2023/10/30 00:20:01;;;;;;;8.05;0.60;;;10.00;99.90;;;;;;6199696;23;20854;-96
2023/10/30 00:22:34;;;;;;;10.98;0.95;;;9.90;99.90;;;;;;6200371;23;20398;-96
2023/10/30 00:28:22;;;;;;;9.27;0.70;;;9.90;99.90;;;;;;6190320;22;20418;-95
2023/10/30 00:47:38;;;;;;;4.75;0.55;;;9.70;99.90;;;;;;6141070;23;20400;-94
2023/10/30 00:56:37;;;;;;;5.00;0.40;;;10.10;99.90;;;;;;6258299;23;20444;-96
2023/10/30 00:59:47;;;;;;;5.47;0.40;;;9.80;99.90;;;;;;6183115;23;20656;-96
2023/10/30 01:07:48;;;;;;;5.40;0.40;;;9.80;99.90;;;;;;6154561;23;20435;31
2023/10/30 01:10:40;;;;;;;6.20;0.50;;;9.80;99.90;;;;;;6140087;23;20403;-95
2023/10/30 01:17:48;;;;;;;5.97;0.55;;;9.80;99.90;;;;;;6113098;23;20377;-96
2023/10/30 01:20:20;;;;;;;6.20;0.50;;;9.80;99.90;;;;;;6054630;23;20392;-96
2023/10/30 01:32:36;;;;;;;3.95;0.30;;;9.80;99.90;;;;;;5731527;23;10246862;-96
2023/10/30 01:35:04;;;;;;;5.63;0.45;;;10.20;99.90;;;;;;6149587;23;20365;-95
2023/10/30 01:40:10;;;;;;;3.45;0.40;;;9.70;99.90;;;;;;6224707;23;20465;-96
2023/10/30 01:42:42;;;;;;;4.47;0.30;;;9.70;99.90;;;;;;6116129;23;20405;-96
2023/10/30 01:47:51;;;;;;;3.15;0.50;;;9.70;99.90;;;;;;6167318;23;20434;-96
2023/10/30 01:59:27;;;;;;;5.22;0.40;;;9.60;99.90;;;;;;6140560;23;20401;-94
2023/10/30 02:01:53;;;;;;;3.88;0.40;;;9.70;99.90;;;;;;6172274;23;20369;-95
2023/10/30 02:04:19;;;;;;;3.90;0.40;;;9.80;99.90;;;;;;6167085;23;20389;-94
2023/10/30 02:07:25;;;;;;;5.47;0.40;;;9.70;99.90;;;;;;6165801;23;20449;-96
2023/10/30 02:11:01;;;;;;;5.25;0.50;;;9.60;99.90;;;;;;6179905;23;20388;-96
2023/10/30 02:14:11;;;;;;;5.72;0.40;;;9.90;99.90;;;;;;6092441;23;20389;-96
2023/10/30 02:17:13;;;;;;;6.15;0.60;;;9.60;99.90;;;;;;6046443;23;20396;-96
2023/10/30 02:20:14;;;;;;;2.33;0.40;;;9.50;99.90;;;;;;6059123;23;20377;-96
2023/10/30 02:27:09;;;;;;;;;;;;;;;;;;;;;
2023/10/30 02:30:33;;;;;;;5.20;0.50;;;9.40;99.90;;;;;;5932971;24;20388;-95
2023/10/30 02:36:47;;;;;;;3.90;0.50;;;9.40;99.90;;;;;;6193609;23;20388;-95
2023/10/30 02:39:16;;;;;;;2.72;0.50;;;9.10;99.90;;;;;;6173612;23;20377;-96
2023/10/30 02:45:59;;;;;;;6.22;1.00;;;8.90;99.90;;;;;;6153653;23;20896;-96
2023/10/30 02:49:14;;;;;;;5.07;1.20;;;9.30;99.90;;;;;;6173794;23;20441;-96
2023/10/30 02:51:52;;;;;;;5.60;1.00;;;9.30;99.90;;;;;;6084038;23;20452;-94
2023/10/30 02:54:27;;;;;;;6.63;1.35;;;8.90;99.90;;;;;;6082146;23;20369;-94
2023/10/30 02:56:52;;;;;;;5.80;1.00;;;9.40;99.90;;;;;;6083231;23;20360;-93
2023/10/30 02:59:18;;;;;;;5.53;1.38;;;9.20;99.90;;;;;;6104339;23;20447;-96
2023/10/30 03:01:44;;;;;;;5.27;1.30;;;8.70;99.90;;;;;;6171851;23;20389;-94
2023/10/30 03:04:12;;;;;;;6.90;1.70;;;8.90;99.90;;;;;;6167050;23;20419;-94
2023/10/30 03:06:39;;;;;;;6.40;1.83;;;9.40;99.90;;;;;;6198172;23;20401;-94
2023/10/30 03:09:07;;;;;;;6.05;2.20;;;9.60;99.90;;;;;;6173387;23;20385;-95
2023/10/30 03:15:45;;;;;;;9.52;2.38;;;9.60;99.90;;;;;;6173405;23;20412;-94
2023/10/30 03:19:09;;;;;;;8.75;2.42;;;9.20;99.90;;;;;;6165177;23;20411;-94
2023/10/30 03:24:47;;;;;;;;;;;;;;;;;;;;;
2023/10/30 03:27:33;;;;;;;10.98;2.40;;;9.20;99.90;;;;;;6212845;23;20402;-96
2023/10/30 03:29:59;;;;;;;8.70;2.20;;;9.20;99.90;;;;;;6190029;23;20733;-94
2023/10/30 03:32:25;;;;;;;9.87;1.53;;;9.40;99.90;;;;;;6187430;23;20363;-94
2023/10/30 03:34:54;;;;;;;11.20;2.43;;;9.20;99.90;;;;;;6186774;23;20904;-95
2023/10/30 03:37:20;;;;;;;15.05;2.45;;;9.40;99.90;;;;;;6194297;23;20379;-95
2023/10/30 03:39:49;;;;;;;10.87;2.50;;;9.10;99.90;;;;;;6192969;23;21258;-95
2023/10/30 03:42:15;;;;;;;10.30;2.03;;;9.20;99.90;;;;;;6186212;23;20375;-94
2023/10/30 03:44:41;;;;;;;11.00;2.40;;;9.90;99.90;;;;;;6188482;23;20462;-94
2023/10/30 03:47:06;;;;;;;11.85;2.40;;;9.20;99.90;;;;;;6190265;23;20403;-96
2023/10/30 03:49:32;;;;;;;10.77;1.83;;;10.10;99.90;;;;;;6189456;23;20382;-93
2023/10/30 03:52:03;;;;;;;12.70;2.00;;;9.40;99.90;;;;;;6191058;23;20376;-95
2023/10/30 03:54:49;;;;;;;11.87;2.50;;;9.20;99.90;;;;;;6186343;23;20364;-95
2023/10/30 03:57:15;;;;;;;9.85;2.30;;;9.20;99.90;;;;;;6189378;23;20368;-95
2023/10/30 03:59:41;;;;;;;11.45;2.03;;;9.40;99.90;;;;;;6192105;23;20410;-94
2023/10/30 04:02:21;;;;;;;11.40;2.13;;;9.90;99.90;;;;;;6196362;23;20458;-95
2023/10/30 04:04:58;;;;;;;13.30;2.00;;;9.40;99.90;;;;;;6198884;23;20386;-95
2023/10/30 04:07:24;;;;;;;10.18;2.40;;;9.30;99.90;;;;;;6203020;23;20459;-95
2023/10/30 04:09:51;;;;;;;11.65;1.75;;;9.20;99.90;;;;;;6190730;23;20367;-94
2023/10/30 04:12:49;;;;;;;12.50;2.23;;;9.70;99.90;;;;;;6191044;23;20434;-94
2023/10/30 04:15:53;;;;;;;11.98;2.55;;;9.20;99.90;;;;;;6178887;23;20359;-95
2023/10/30 04:18:18;;;;;;;11.27;1.90;;;9.40;99.90;;;;;;6193666;23;20415;-93
2023/10/30 04:20:45;;;;;;;7.93;1.90;;;9.90;99.90;;;;;;6192006;23;20951;-95
2023/10/30 04:23:13;;;;;;;12.80;2.13;;;9.20;99.90;;;;;;6190387;23;20394;-94
2023/10/30 04:25:39;;;;;;;14.52;2.30;;;9.30;99.90;;;;;;6164241;23;20368;-95
2023/10/30 04:28:04;;;;;;;13.80;2.20;;;9.90;99.90;;;;;;6184225;23;20462;-94
2023/10/30 04:30:43;;;;;;;16.55;2.30;;;9.20;99.90;;;;;;6187893;23;20372;-95
2023/10/30 04:33:11;;;;;;;12.50;1.92;;;9.20;99.90;;;;;;6196979;23;20439;-95
2023/10/30 04:35:47;;;;;;;12.67;2.13;;;9.20;99.90;;;;;;6193790;23;20363;-96
2023/10/30 04:41:57;;;;;;;14.07;1.90;;;9.30;99.90;;;;;;6227163;23;20401;-96
2023/10/30 04:53:58;;;;;;;13.38;2.13;;;9.40;99.90;;;;;;6205826;22;20398;-95
2023/10/30 05:20:55;;;;;;;12.90;2.00;;;9.30;99.90;;;;;;6212794;22;20398;-96
2023/10/30 05:26:18;;;;;;;13.73;1.77;;;9.20;99.90;;;;;;6231202;22;20391;-95
2023/10/30 05:41:12;;;;;;;14.18;2.47;;;9.10;99.90;;;;;;6111275;23;20463;-96
2023/10/30 05:44:06;;;;;;;14.63;1.45;;;9.20;99.90;;;;;;6153082;23;20399;-96
2023/10/30 05:56:14;;;;;;;12.10;1.90;;;9.00;99.90;;;;;;6083883;23;20380;-96
2023/10/30 05:58:57;;;;;;;13.05;2.00;;;9.20;99.90;;;;;;6139604;23;20378;-96
2023/10/30 06:01:23;;;;;;;14.13;1.52;;;9.30;99.90;;;;;;6174003;23;20427;-96
2023/10/30 06:07:42;;;;;;;14.05;1.83;;;8.90;99.90;;;;;;6098642;23;20444;-94
2023/10/30 06:10:34;;;;;;;13.38;2.00;;;9.30;99.90;;;;;;6203096;23;20430;-96
2023/10/30 06:13:43;;;;;;;12.25;2.00;;;8.90;99.90;;;;;;6195505;23;20396;-96
2023/10/30 06:18:51;;;;;;;18.33;2.40;;;8.90;99.90;;;;;;6225606;23;20401;-94
2023/10/30 06:21:20;;;;;;;12.68;1.88;;;8.90;99.90;;;;;;6193285;23;20832;-95
2023/10/30 06:23:55;;;;;;;14.60;1.90;;;8.90;99.90;;;;;;6198055;23;20360;-96
2023/10/30 06:26:23;;;;;;;14.55;1.88;;;8.70;99.90;;;;;;6156479;23;20398;-96
2023/10/30 06:29:08;;;;;;;13.13;1.90;;;8.60;99.90;;;;;;6114042;23;20450;-95
2023/10/30 06:31:33;;;;;;;12.40;1.83;;;8.90;99.90;;;;;;6111394;23;20378;-95
2023/10/30 06:33:59;;;;;;;14.87;1.87;;;8.90;99.90;;;;;;6111742;23;20741;-96
2023/10/30 06:37:17;;;;;;;;;;;;;;;;;;;;;
2023/10/30 06:42:44;;;;;;;13.77;1.63;;;9.00;99.90;;;;;;6225895;23;20426;-96
2023/10/30 06:48:03;;;;;;;10.32;1.70;;;9.10;99.90;;;;;;6224808;22;20403;-95
2023/10/30 06:50:32;;;;;;;14.77;2.20;;;9.10;99.90;;;;;;6164114;23;20383;-96
2023/10/30 06:52:59;;;;;;;17.25;2.50;;;9.30;99.90;;;;;;6166563;23;20416;-96
2023/10/30 06:55:25;;;;;;;11.33;1.50;;;9.20;99.90;;;;;;6163456;23;20443;-93
2023/10/30 06:57:51;;;;;;;13.87;1.80;;;9.40;99.90;;;;;;6168644;23;20398;-95
2023/10/30 07:00:24;;;;;;;15.63;1.98;;;9.10;99.90;;;;;;6169387;23;20380;-95
2023/10/30 07:02:49;;;;;;;14.02;1.98;;;9.30;99.90;;;;;;6168340;23;20374;-94
2023/10/30 07:05:15;;;;;;;13.60;1.70;;;10.10;99.90;;;;;;6167014;23;20380;-94
2023/10/30 07:07:41;;;;;;;11.73;1.60;;;9.60;99.90;;;;;;6171190;23;20465;-93
2023/10/30 07:10:13;;;;;;;12.50;1.70;;;9.60;99.90;;;;;;6164649;23;20387;-95
2023/10/30 07:12:43;;;;;;;13.57;1.70;;;9.50;99.90;;;;;;6165819;23;20442;-96
2023/10/30 07:15:10;;;;;;;11.88;1.67;;;9.30;99.90;;;;;;6160807;23;20372;-95
2023/10/30 07:17:36;;;;;;;13.52;1.77;;;9.70;99.90;;;;;;6163525;23;20450;-95
2023/10/30 07:20:03;;;;;;;10.77;1.40;;;9.90;99.90;;;;;;6165664;23;20363;-93
2023/10/30 07:22:29;;;;;;;10.88;1.27;;;9.90;99.90;;;;;;6163109;23;20399;-93
2023/10/30 07:25:00;;;;;;;10.30;1.50;;;10.40;99.90;;;;;;6160060;23;20364;-94
2023/10/30 07:27:46;;;;;;;11.55;1.08;;;10.10;99.90;;;;;;6199133;23;20394;-96
2023/10/30 07:30:12;;;;;;;14.02;1.52;;;10.20;99.90;;;;;;6167702;23;20399;-94
2023/10/30 07:32:50;;;;;;;10.73;1.27;;;10.10;99.90;;;;;;6160494;23;20368;-95
2023/10/30 07:35:16;;;;;;;13.25;1.58;;;10.10;99.90;;;;;;6164365;23;20379;-96
2023/10/30 07:37:41;;;;;;;12.40;1.63;;;10.50;99.90;;;;;;6163135;23;20396;-95
2023/10/30 07:40:07;;;;;;;11.60;1.37;;;10.30;99.90;;;;;;6165822;23;20374;-94
2023/10/30 07:42:33;;;;;;;9.85;1.52;;;10.30;99.90;;;;;;6164157;23;20368;-93
2023/10/30 07:45:02;;;;;;;10.60;1.75;;;10.70;99.90;;;;;;6160265;23;20374;-96
2023/10/30 07:47:30;;;;;;;11.33;1.43;;;10.60;99.90;;;;;;6187701;23;20410;-95
2023/10/30 07:50:01;;;;;;;11.70;1.67;;;10.70;99.90;;;;;;6166796;23;20416;-95
2023/10/30 07:52:27;;;;;;;11.55;1.40;;;10.80;99.90;;;;;;6160607;23;20458;-94
2023/10/30 07:54:52;;;;;;;10.30;1.83;;;11.00;99.90;;;;;;6164132;23;20372;-94
2023/10/30 07:57:18;;;;;;;9.85;1.60;;;11.10;99.90;;;;;;6158054;23;20380;-92
2023/10/30 07:59:44;;;;;;;11.70;1.60;;;11.10;99.90;;;;;;6164568;23;20386;-93
2023/10/30 08:02:09;;;;;;;11.00;1.60;;;11.40;99.90;;;;;;6158149;23;20387;-94
2023/10/30 08:04:35;;;;;;;12.38;1.85;;;11.20;99.90;;;;;;6161691;23;20379;-93
2023/10/30 08:07:01;;;;;;;11.20;1.80;;;12.00;99.90;;;;;;6161004;23;20474;-93
2023/10/30 08:09:26;;;;;;;8.67;1.97;;;11.30;99.90;;;;;;6160006;23;20371;-95
2023/10/30 08:11:55;;;;;;;11.68;1.77;;;11.40;99.90;;;;;;6161780;23;20370;-92
2023/10/30 08:14:21;;;;;;;11.83;1.87;;;11.40;99.90;;;;;;6159607;23;20372;-92
2023/10/30 08:16:51;;;;;;;9.73;1.80;;;11.10;99.90;;;;;;6160136;23;20872;-94
2023/10/30 08:19:17;;;;;;;12.70;2.40;;;11.20;99.90;;;;;;6158715;23;20849;-94
2023/10/30 08:21:42;;;;;;;10.88;1.73;;;11.40;99.90;;;;;;6161065;23;20391;-92
2023/10/30 08:24:18;;;;;;;10.07;1.67;;;11.50;99.90;;;;;;6161279;23;20373;-94
2023/10/30 08:26:44;;;;;;;14.45;1.85;;;11.30;99.90;;;;;;6158473;23;20856;-94
2023/10/30 08:29:10;;;;;;;11.93;1.63;;;11.70;99.90;;;;;;6183969;23;20368;-93
2023/10/30 08:31:44;;;;;;;14.07;1.90;;;11.60;99.90;;;;;;6161691;22;20736;-95
2023/10/30 08:34:11;;;;;;;10.02;1.50;;;11.60;99.90;;;;;;6161010;23;20371;-94
2023/10/30 08:36:37;;;;;;;12.35;1.63;;;11.40;99.90;;;;;;6158364;23;20458;-94
2023/10/30 08:39:06;;;;;;;10.55;1.75;;;11.60;99.90;;;;;;6159547;23;20915;-94
2023/10/30 08:41:33;;;;;;;11.67;1.73;;;11.50;99.90;;;;;;6163636;23;20371;-93
2023/10/30 08:44:02;;;;;;;11.80;2.08;;;11.90;99.90;;;;;;6158327;23;20425;-94
2023/10/30 08:46:32;;;;;;;10.98;2.10;;;11.90;99.90;;;;;;6180959;23;20864;-93
2023/10/30 08:48:58;;;;;;;9.50;2.03;;;12.00;99.90;;;;;;6157733;23;20848;-93
2023/10/30 08:51:23;;;;;;;9.37;1.77;;;11.80;99.90;;;;;;6156471;23;20387;-91
2023/10/30 08:53:50;;;;;;;8.77;1.42;;;12.20;99.90;;;;;;6158276;23;20692;-92
2023/10/30 08:56:17;;;;;;;12.93;1.90;;;12.00;99.90;;;;;;6157841;23;20515;-90
2023/10/30 08:58:43;;;;;;;11.20;1.80;;;12.10;99.90;;;;;;6156310;23;20370;-93
2023/10/30 09:01:08;;;;;;;9.32;1.23;;;12.40;99.90;;;;;;6182908;23;20382;-91
2023/10/30 09:03:39;;;;;;;9.30;1.23;;;12.40;99.90;;;;;;6156246;23;20368;-95
2023/10/30 09:06:05;;;;;;;11.20;1.50;;;12.70;99.90;;;;;;6158533;23;20367;-93
2023/10/30 09:08:31;;;;;;;10.48;1.17;;;12.40;99.90;;;;;;6156553;23;20367;-91
2023/10/30 09:10:56;;;;;;;9.18;1.25;;;12.50;99.90;;;;;;6158179;23;20368;-92
2023/10/30 09:13:22;;;;;;;12.70;1.70;;;12.70;99.90;;;;;;6155837;23;20371;-92
2023/10/30 09:15:48;;;;;;;8.38;1.40;;;13.00;99.90;;;;;;6157114;23;21170;-94
2023/10/30 09:18:13;;;;;;;11.43;1.70;;;13.20;99.90;;;;;;6160649;23;20868;-93
2023/10/30 09:20:39;;;;;;;8.18;1.63;;;13.10;99.90;;;;;;6156489;23;20927;-93
2023/10/30 09:23:05;;;;;;;9.27;1.55;;;13.00;99.90;;;;;;6157834;23;20368;-93
2023/10/30 09:25:31;;;;;;;9.37;1.67;;;13.50;99.90;;;;;;6155772;23;20414;-92
2023/10/30 09:27:57;;;;;;;12.57;1.67;;;13.00;99.90;;;;;;6157749;23;20392;-92
2023/10/30 09:30:29;;;;;;;11.10;1.90;;;13.40;99.90;;;;;;6158242;23;20736;-92
2023/10/30 09:32:55;;;;;;;8.50;1.52;;;13.50;99.90;;;;;;6158713;23;20372;-92
2023/10/30 09:35:21;;;;;;;9.88;1.48;;;13.60;99.90;;;;;;6184197;23;20404;-92
2023/10/30 09:37:47;;;;;;;9.90;1.15;;;13.60;99.90;;;;;;6157732;23;20374;-92
2023/10/30 09:40:13;;;;;;;10.80;1.80;;;14.00;99.90;;;;;;6161502;23;20372;-94
2023/10/30 09:42:50;;;;;;;8.98;1.83;;;13.70;99.90;;;;;;6159309;23;20709;-93
2023/10/30 09:45:18;;;;;;;9.70;1.48;;;13.90;99.90;;;;;;6159685;23;20395;-93
2023/10/30 09:47:45;;;;;;;11.25;1.90;;;14.30;99.90;;;;;;6185603;23;20416;-94
2023/10/30 09:50:11;;;;;;;9.88;1.10;;;14.30;99.90;;;;;;6185070;23;20364;-95
2023/10/30 09:52:37;;;;;;;11.68;1.50;;;14.00;99.90;;;;;;6160499;23;20397;-93
2023/10/30 09:55:08;;;;;;;10.35;1.35;;;14.40;99.90;;;;;;6163282;23;20380;-93
2023/10/30 09:57:34;;;;;;;12.55;1.20;;;14.30;99.90;;;;;;6161635;23;20426;-93
2023/10/30 09:59:59;;;;;;;11.50;1.33;;;14.60;99.90;;;;;;6162544;23;20372;-93
2023/10/30 10:02:25;;;;;;;10.83;1.63;;;14.90;99.90;;;;;;6162058;23;20736;-93
2023/10/30 10:04:51;;;;;;;11.02;1.38;;;15.20;99.90;;;;;;6158967;23;20368;-94
2023/10/30 10:07:21;;;;;;;9.73;1.42;;;14.20;99.90;;;;;;6161702;23;20949;-93
2023/10/30 10:10:03;;;;;;;9.88;1.50;;;14.70;99.90;;;;;;6160562;23;20421;-92
2023/10/30 10:12:52;;;;;;;9.67;1.70;;;14.80;99.90;;;;;;6161989;23;20380;-93
2023/10/30 10:15:20;;;;;;;9.20;1.48;;;14.90;99.90;;;;;;6187029;23;20375;-93
2023/10/30 10:17:46;;;;;;;8.50;1.60;;;14.90;99.90;;;;;;6161992;23;20367;-92
2023/10/30 10:20:12;;;;;;;9.27;1.40;;;15.00;99.90;;;;;;6161362;23;20392;-93
2023/10/30 10:22:39;;;;;;;10.83;1.40;;;14.90;99.90;;;;;;6182111;23;20771;-93
2023/10/30 10:25:10;;;;;;;9.60;1.88;;;14.50;99.90;;;;;;6159691;23;20701;-95
2023/10/30 10:27:40;;;;;;;12.13;1.80;;;14.40;99.90;;;;;;6157371;23;20872;-93
2023/10/30 10:30:08;;;;;;;11.20;1.63;;;14.40;99.90;;;;;;6159879;23;20414;-94
2023/10/30 10:32:34;;;;;;;10.45;1.58;;;14.10;99.90;;;;;;6162840;23;20387;-94
2023/10/30 10:35:11;;;;;;;9.37;1.67;;;14.10;99.90;;;;;;6161669;23;20360;-95
2023/10/30 10:37:37;;;;;;;9.93;1.60;;;14.50;99.90;;;;;;6162908;23;20368;-94
2023/10/30 10:40:05;;;;;;;8.60;1.20;;;14.70;99.90;;;;;;6158768;23;20374;-95
2023/10/30 10:42:32;;;;;;;8.73;1.17;;;14.40;99.90;;;;;;6160792;23;20364;-94
2023/10/30 10:45:01;;;;;;;12.38;1.50;;;14.90;99.90;;;;;;6158166;23;20371;-95
2023/10/30 10:47:27;;;;;;;8.50;1.17;;;14.90;99.90;;;;;;6164228;23;20451;-94
2023/10/30 10:49:53;;;;;;;10.82;1.20;;;14.60;99.90;;;;;;6158265;23;20471;-93
2023/10/30 10:52:19;;;;;;;9.33;1.43;;;14.50;99.90;;;;;;6160272;23;20431;-93
2023/10/30 10:54:53;;;;;;;8.70;1.30;;;14.70;99.90;;;;;;6159476;23;20406;-93
2023/10/30 10:57:21;;;;;;;10.48;1.60;;;14.90;99.90;;;;;;6159907;23;20463;-94
2023/10/30 10:59:58;;;;;;;10.77;1.38;;;15.10;99.90;;;;;;6184439;23;20402;-96
2023/10/30 11:02:31;;;;;;;10.77;1.50;;;15.30;99.90;;;;;;6158597;23;20780;-95
2023/10/30 11:05:01;;;;;;;10.68;1.60;;;15.50;99.90;;;;;;6161705;23;20422;-96
2023/10/30 11:07:41;;;;;;;10.35;1.23;;;15.60;99.90;;;;;;6161807;23;20397;-96
2023/10/30 11:10:23;;;;;;;8.30;1.02;;;15.60;99.90;;;;;;6162182;23;20364;-95
2023/10/30 11:13:24;;;;;;;8.80;1.42;;;15.70;99.90;;;;;;6157191;23;20376;-94
2023/10/30 11:15:59;;;;;;;8.95;1.30;;;15.90;99.90;;;;;;6181990;23;20862;-93
2023/10/30 11:18:27;;;;;;;8.87;1.40;;;15.40;99.90;;;;;;6184574;23;20379;-94
2023/10/30 11:21:17;;;;;;;14.13;1.92;;;15.60;99.90;;;;;;6184009;23;20367;-94
2023/10/30 11:23:47;;;;;;;10.23;1.02;;;15.20;99.90;;;;;;6158551;23;20407;-95
2023/10/30 11:26:40;;;;;;;9.53;1.20;;;15.20;99.90;;;;;;6158894;23;20414;-91
2023/10/30 11:29:08;;;;;;;8.45;1.23;;;15.60;99.90;;;;;;6156700;23;20376;-94
2023/10/30 11:31:54;;;;;;;8.98;1.40;;;15.30;99.90;;;;;;6161567;23;20749;-94
2023/10/30 11:34:33;;;;;;;9.43;1.10;;;15.80;99.90;;;;;;6158342;23;20364;-93
2023/10/30 11:37:02;;;;;;;9.88;1.20;;;15.60;99.90;;;;;;6160447;23;20375;-94
2023/10/30 11:39:33;;;;;;;8.70;1.20;;;15.60;99.90;;;;;;6183714;23;20371;-95
2023/10/30 11:41:59;;;;;;;9.90;1.60;;;15.80;99.90;;;;;;6187159;23;20368;-96
2023/10/30 11:44:31;;;;;;;8.77;0.88;;;15.90;99.90;;;;;;6168201;23;20371;-96
2023/10/30 11:47:00;;;;;;;12.05;1.45;;;15.70;99.90;;;;;;6186586;23;20734;-93
2023/10/30 11:49:40;;;;;;;12.83;1.70;;;15.80;99.90;;;;;;6162603;23;20381;-96
2023/10/30 11:52:13;;;;;;;10.55;1.48;;;15.90;99.90;;;;;;6192790;23;20832;-95
2023/10/30 11:54:54;;;;;;;11.43;1.42;;;15.50;99.90;;;;;;6193278;23;20445;-94
2023/10/30 11:57:22;;;;;;;11.13;1.17;;;15.70;99.90;;;;;;6183668;23;20376;-92
2023/10/30 11:59:51;;;;;;;10.20;1.30;;;15.70;99.90;;;;;;6185713;23;20469;-95
2023/10/30 12:02:17;;;;;;;10.48;1.50;;;15.70;99.90;;;;;;6181417;23;20425;-96
2023/10/30 12:04:45;;;;;;;10.45;1.30;;;15.70;99.90;;;;;;6182242;23;20750;-93
2023/10/30 12:07:13;;;;;;;10.15;1.08;;;16.10;99.90;;;;;;6182527;23;20391;-93
2023/10/30 12:09:39;;;;;;;9.32;1.48;;;16.20;99.90;;;;;;6182897;23;20841;-94
2023/10/30 12:12:11;;;;;;;9.40;1.25;;;16.00;99.90;;;;;;6184368;23;20448;-95
2023/10/30 12:14:38;;;;;;;8.07;1.10;;;16.30;99.90;;;;;;6183063;23;20379;-94
2023/10/30 12:17:04;;;;;;;11.85;1.77;;;16.00;99.90;;;;;;6183689;23;20386;-93
2023/10/30 12:19:33;;;;;;;9.35;1.55;;;15.40;99.90;;;;;;6182206;23;20368;-95
2023/10/30 12:21:59;;;;;;;7.85;1.27;;;15.60;99.90;;;;;;6185620;23;20375;-95
2023/10/30 12:24:25;;;;;;;11.53;1.60;;;15.50;99.90;;;;;;6182385;23;20360;-93
2023/10/30 12:26:51;;;;;;;9.77;1.33;;;15.50;99.90;;;;;;6208926;23;20450;-92
2023/10/30 12:29:24;;;;;;;9.90;1.70;;;15.10;99.90;;;;;;6182524;23;20371;-92
2023/10/30 12:32:11;;;;;;;10.68;1.58;;;15.30;99.90;;;;;;6180832;23;20713;-94
2023/10/30 12:34:40;;;;;;;11.07;1.67;;;14.90;99.90;;;;;;6183705;23;20364;-95
2023/10/30 12:37:23;;;;;;;11.10;1.40;;;15.20;99.90;;;;;;6182339;23;20372;-93
2023/10/30 12:40:03;;;;;;;9.65;1.33;;;14.90;99.90;;;;;;6183130;23;20376;-94
2023/10/30 12:42:33;;;;;;;11.75;1.80;;;14.90;99.90;;;;;;6182958;23;20387;-94
2023/10/30 12:45:03;;;;;;;8.30;1.60;;;14.80;99.90;;;;;;6180696;23;20375;-94
2023/10/30 12:47:28;;;;;;;9.60;1.45;;;14.80;99.90;;;;;;6182933;23;20408;-94
2023/10/30 12:49:54;;;;;;;11.50;1.47;;;14.90;99.90;;;;;;6179996;23;20375;-95
2023/10/30 12:52:20;;;;;;;9.15;1.90;;;15.20;99.90;;;;;;6183047;23;20368;-94
2023/10/30 12:54:45;;;;;;;9.50;1.63;;;15.20;99.90;;;;;;6181507;23;20848;-93
2023/10/30 12:57:11;;;;;;;10.00;1.67;;;14.90;99.90;;;;;;6182278;23;20368;-95
2023/10/30 12:59:37;;;;;;;9.52;1.58;;;14.90;99.90;;;;;;6182477;23;20378;-95
2023/10/30 13:02:02;;;;;;;13.77;1.77;;;15.40;99.90;;;;;;6181060;23;20368;-93
2023/10/30 13:04:28;;;;;;;10.88;1.85;;;15.20;99.90;;;;;;6183351;23;20368;-92
2023/10/30 13:06:54;;;;;;;10.73;1.77;;;15.30;99.90;;;;;;6182666;23;20415;-94
2023/10/30 13:09:20;;;;;;;11.63;1.60;;;15.40;99.90;;;;;;6184837;23;20447;-94
2023/10/30 13:11:45;;;;;;;9.73;1.65;;;15.40;99.90;;;;;;6182837;23;20375;-94
2023/10/30 13:14:11;;;;;;;9.63;1.70;;;15.10;99.90;;;;;;6184777;23;20376;-96
2023/10/30 13:16:36;;;;;;;11.60;2.10;;;15.10;99.90;;;;;;6183508;23;20372;-94
2023/10/30 13:19:02;;;;;;;10.95;1.67;;;15.10;99.90;;;;;;6183716;23;20698;-95
2023/10/30 13:21:28;;;;;;;9.03;1.57;;;15.30;99.90;;;;;;6184545;23;20375;-94
2023/10/30 13:23:56;;;;;;;9.32;1.35;;;15.50;99.90;;;;;;6191731;23;20860;-95
2023/10/30 13:26:22;;;;;;;10.77;1.45;;;15.30;99.90;;;;;;6213164;23;20480;-96
2023/10/30 13:28:48;;;;;;;11.07;1.77;;;15.10;99.90;;;;;;6191293;23;20745;-94
2023/10/30 13:31:13;;;;;;;8.43;1.23;;;15.50;99.90;;;;;;6188855;23;20365;-95
2023/10/30 13:33:42;;;;;;;10.07;1.80;;;15.50;99.90;;;;;;6215991;23;20420;-94
2023/10/30 13:36:08;;;;;;;11.57;2.37;;;15.20;99.90;;;;;;6189699;23;20366;-92
2023/10/30 13:38:33;;;;;;;10.25;1.67;;;15.20;99.90;;;;;;6188243;23;20362;-94
2023/10/30 13:40:59;;;;;;;9.85;1.70;;;15.20;99.90;;;;;;6190311;23;20361;-95
2023/10/30 13:43:26;;;;;;;9.95;1.55;;;15.50;99.90;;;;;;6187658;23;20362;-92
2023/10/30 13:45:52;;;;;;;9.40;1.65;;;15.60;99.90;;;;;;6192500;23;20374;-95
2023/10/30 13:48:28;;;;;;;;;;;;;;;;;;;;;
2023/10/30 13:51:04;;;;;;;7.75;1.40;;;15.40;99.90;;;;;;6217657;23;20370;-95
2023/10/30 13:53:30;;;;;;;10.07;1.58;;;14.80;99.90;;;;;;6190371;23;20838;-94
2023/10/30 13:55:56;;;;;;;9.85;1.40;;;15.50;99.90;;;;;;6193956;23;20439;-94
2023/10/30 13:58:22;;;;;;;9.32;1.45;;;15.10;99.90;;;;;;6190736;23;20370;-95
2023/10/30 14:00:47;;;;;;;12.93;1.60;;;14.70;99.90;;;;;;6190052;23;20381;-95
2023/10/30 14:03:34;;;;;;;10.60;1.40;;;15.00;99.90;;;;;;6194204;23;20748;-96
2023/10/30 14:11:24;;;;;;;12.32;1.90;;;14.60;99.90;;;;;;6122678;23;20393;-96
2023/10/30 14:13:49;;;;;;;10.23;1.35;;;14.60;99.90;;;;;;6126783;23;20865;-95
2023/10/30 14:16:15;;;;;;;9.93;1.75;;;14.60;99.90;;;;;;6102293;23;20413;-95
2023/10/30 14:19:02;;;;;;;;;;;;;;;;;;;;;
2023/10/30 14:21:54;;;;;;;10.88;1.45;;;14.60;99.90;;;;;;6113903;23;20404;-95
2023/10/30 14:24:47;;;;;;;9.80;1.63;;;15.00;99.90;;;;;;6108263;23;20643;-95
2023/10/30 14:27:17;;;;;;;10.65;1.60;;;14.60;99.90;;;;;;6142946;23;20401;-95
2023/10/30 14:35:49;;;;;;;10.52;1.63;;;14.60;99.90;;;;;;6230708;22;20427;-96
2023/10/30 14:38:15;;;;;;;9.93;1.55;;;14.40;99.90;;;;;;6189721;23;20454;-94
2023/10/30 14:40:43;;;;;;;13.03;2.07;;;15.00;99.90;;;;;;6191648;23;20367;-96
2023/10/30 14:43:11;;;;;;;10.57;1.63;;;14.70;99.90;;;;;;6189310;23;20364;-96
2023/10/30 14:45:37;;;;;;;10.70;1.48;;;14.90;99.90;;;;;;6187703;23;20390;-95
2023/10/30 14:48:29;;;;;;;10.50;1.20;;;15.10;99.90;;;;;;6191763;23;20423;-96
2023/10/30 14:51:43;;;;;;;;;;;;;;;;;;;;;
2023/10/30 14:56:10;;;;;;;11.30;1.30;;;14.50;99.90;;;;;;6218197;23;20405;-96
2023/10/30 14:59:15;;;;;;;10.75;1.60;;;14.70;99.90;;;;;;6231809;23;20494;-96
2023/10/30 15:02:54;;;;;;;;;;;;;;;;;;;;;
2023/10/30 15:10:15;;;;;;;9.90;1.20;;;14.20;99.90;;;;;;6025404;23;20410;-96
2023/10/30 15:13:51;;;;;;;;;;;;;;;;;;;;;
2023/10/30 15:35:47;;;;;;;9.55;1.92;;;14.20;99.90;;;;;;6249718;22;20405;-96
2023/10/30 15:42:04;;;;;;;34.10;12.05;;;13.90;99.90;;;;;;6217789;23;20374;-96
2023/10/30 15:44:38;;;;;;;17.70;5.30;;;13.90;99.90;;;;;;6201495;23;20381;-96
2023/10/30 15:47:38;;;;;;;19.13;6.05;;;14.30;99.90;;;;;;6202286;23;20435;-96
2023/10/30 15:50:11;;;;;;;23.80;8.10;;;13.90;99.90;;;;;;6200854;23;20370;-96
2023/10/30 15:52:45;;;;;;;17.15;5.00;;;13.80;99.90;;;;;;6197382;23;20430;-96
2023/10/30 15:55:10;;;;;;;12.88;3.83;;;13.80;99.90;;;;;;6206182;23;20370;-95
2023/10/30 15:57:39;;;;;;;19.93;6.40;;;13.90;99.90;;;;;;6207322;23;20385;-96
2023/10/30 16:00:44;;;;;;;10.77;2.63;;;13.80;99.90;;;;;;6211354;23;20406;-96
2023/10/30 16:03:25;;;;;;;13.02;3.00;;;13.70;99.90;;;;;;6231898;23;20375;-96
2023/10/30 16:05:58;;;;;;;13.87;2.90;;;13.40;99.90;;;;;;6221831;23;20366;-96
2023/10/30 16:12:04;;;;;;;10.38;2.03;;;13.60;99.90;;;;;;6246798;23;20369;-96
2023/10/30 16:27:18;;;;;;;12.63;3.13;;;13.30;99.90;;;;;;6199976;23;20462;-96
2023/10/30 16:29:52;;;;;;;13.55;2.67;;;13.70;99.90;;;;;;6160965;23;20463;-96
2023/10/30 16:32:21;;;;;;;11.10;2.77;;;13.30;99.90;;;;;;6167537;23;20365;-95
2023/10/30 16:34:47;;;;;;;13.35;3.00;;;13.20;99.90;;;;;;6166677;23;20448;-96
2023/10/30 16:37:13;;;;;;;12.25;2.60;;;13.50;99.90;;;;;;6152265;23;20377;-96
2023/10/30 16:39:39;;;;;;;11.07;2.83;;;13.20;99.90;;;;;;6153818;23;20676;-95
2023/10/30 16:42:05;;;;;;;15.00;3.30;;;13.20;99.90;;;;;;6145416;23;20858;-95
2023/10/30 16:44:30;;;;;;;10.63;3.30;;;13.20;99.90;;;;;;6160201;23;21173;-96
2023/10/30 16:46:56;;;;;;;11.65;3.00;;;13.20;99.90;;;;;;6159653;23;20448;-96
2023/10/30 16:49:25;;;;;;;13.20;3.50;;;13.10;99.90;;;;;;6165984;23;20380;-95
2023/10/30 16:52:15;;;;;;;10.73;3.20;;;13.10;99.90;;;;;;6159878;23;20725;-96
2023/10/30 16:55:35;;;;;;;10.75;3.22;;;13.30;99.90;;;;;;6180988;23;20385;-96
2023/10/30 16:58:29;;;;;;;11.45;3.50;;;13.10;99.90;;;;;;6114041;23;20456;-95
2023/10/30 17:01:09;;;;;;;11.27;3.63;;;12.90;99.90;;;;;;6146498;23;20405;-96
2023/10/30 17:03:38;;;;;;;12.50;4.03;;;13.00;99.90;;;;;;6151797;23;20444;-96
2023/10/30 17:06:46;;;;;;;13.85;4.70;;;12.90;99.90;;;;;;6167159;23;20377;-96
2023/10/30 17:10:30;;;;;;;;;;;;;;;;;;;;;